sensor_id;sensor_type;location;lat;lon;timestamp;temperature;humidity
983;DHT22;480;48.124;11.578;2023-02-02T00:01:49;4.80;99.90
983;DHT22;480;48.124;11.578;2023-02-02T00:04:19;4.80;99.90
983;DHT22;480;48.124;11.578;2023-02-02T00:06:47;4.80;99.90
983;DHT22;480;48.124;11.578;2023-02-02T00:09:16;4.80;99.90
983;DHT22;480;48.124;11.578;2023-02-02T00:11:45;4.90;99.90
983;DHT22;480;48.124;11.578;2023-02-02T00:14:16;4.80;99.90
983;DHT22;480;48.124;11.578;2023-02-02T00:16:45;4.80;99.90
983;DHT22;480;48.124;11.578;2023-02-02T00:19:15;4.80;99.90
983;DHT22;480;48.124;11.578;2023-02-02T00:21:43;4.80;99.90
983;DHT22;480;48.124;11.578;2023-02-02T00:24:12;4.80;99.90
983;DHT22;480;48.124;11.578;2023-02-02T00:26:42;4.70;99.90
983;DHT22;480;48.124;11.578;2023-02-02T00:29:14;4.80;99.90
983;DHT22;480;48.124;11.578;2023-02-02T00:31:43;4.70;99.90
983;DHT22;480;48.124;11.578;2023-02-02T00:34:11;4.80;99.90
983;DHT22;480;48.124;11.578;2023-02-02T00:36:39;4.70;99.90
983;DHT22;480;48.124;11.578;2023-02-02T00:39:06;4.70;99.90
983;DHT22;480;48.124;11.578;2023-02-02T00:41:34;4.70;99.90
983;DHT22;480;48.124;11.578;2023-02-02T00:44:02;4.70;99.90
983;DHT22;480;48.124;11.578;2023-02-02T00:46:48;4.60;99.90
983;DHT22;480;48.124;11.578;2023-02-02T00:49:15;4.70;99.90
983;DHT22;480;48.124;11.578;2023-02-02T00:51:42;4.70;99.90
983;DHT22;480;48.124;11.578;2023-02-02T00:54:09;4.60;99.90
983;DHT22;480;48.124;11.578;2023-02-02T00:56:36;4.60;99.90
983;DHT22;480;48.124;11.578;2023-02-02T00:59:03;4.60;99.90
983;DHT22;480;48.124;11.578;2023-02-02T01:01:31;4.60;99.90
983;DHT22;480;48.124;11.578;2023-02-02T01:04:01;4.50;99.90
983;DHT22;480;48.124;11.578;2023-02-02T01:09:46;4.40;99.90
983;DHT22;480;48.124;11.578;2023-02-02T01:12:13;4.30;99.90
983;DHT22;480;48.124;11.578;2023-02-02T01:14:40;4.30;99.90
983;DHT22;480;48.124;11.578;2023-02-02T01:17:07;4.30;99.90
983;DHT22;480;48.124;11.578;2023-02-02T01:19:36;4.20;99.90
983;DHT22;480;48.124;11.578;2023-02-02T01:22:03;4.20;99.90
983;DHT22;480;48.124;11.578;2023-02-02T01:24:31;4.20;99.90
983;DHT22;480;48.124;11.578;2023-02-02T01:26:58;4.20;99.90
983;DHT22;480;48.124;11.578;2023-02-02T01:29:25;4.20;99.90
983;DHT22;480;48.124;11.578;2023-02-02T01:31:52;4.20;99.90
983;DHT22;480;48.124;11.578;2023-02-02T01:34:19;4.20;99.90
983;DHT22;480;48.124;11.578;2023-02-02T01:36:49;4.20;99.90
983;DHT22;480;48.124;11.578;2023-02-02T01:39:17;4.20;99.90
983;DHT22;480;48.124;11.578;2023-02-02T01:41:44;4.30;99.90
983;DHT22;480;48.124;11.578;2023-02-02T01:47:16;4.30;99.90
983;DHT22;480;48.124;11.578;2023-02-02T01:49:44;4.30;99.90
983;DHT22;480;48.124;11.578;2023-02-02T01:52:14;4.30;99.90
983;DHT22;480;48.124;11.578;2023-02-02T01:54:45;4.30;99.90
983;DHT22;480;48.124;11.578;2023-02-02T01:57:20;4.40;99.90
983;DHT22;480;48.124;11.578;2023-02-02T01:59:51;4.30;99.90
983;DHT22;480;48.124;11.578;2023-02-02T02:02:20;4.30;99.90
983;DHT22;480;48.124;11.578;2023-02-02T02:04:48;4.40;99.90
983;DHT22;480;48.124;11.578;2023-02-02T02:07:17;4.40;99.90
983;DHT22;480;48.124;11.578;2023-02-02T02:09:44;4.50;99.90
983;DHT22;480;48.124;11.578;2023-02-02T02:12:11;4.50;99.90
983;DHT22;480;48.124;11.578;2023-02-02T02:14:40;4.50;99.90
983;DHT22;480;48.124;11.578;2023-02-02T02:17:36;4.50;99.90
983;DHT22;480;48.124;11.578;2023-02-02T02:20:35;4.50;99.90
983;DHT22;480;48.124;11.578;2023-02-02T02:23:52;4.50;99.90
983;DHT22;480;48.124;11.578;2023-02-02T02:27:13;4.50;99.90
983;DHT22;480;48.124;11.578;2023-02-02T02:30:06;4.50;99.90
983;DHT22;480;48.124;11.578;2023-02-02T02:32:40;4.50;99.90
983;DHT22;480;48.124;11.578;2023-02-02T02:35:16;4.50;99.90
983;DHT22;480;48.124;11.578;2023-02-02T02:37:52;4.50;99.90
983;DHT22;480;48.124;11.578;2023-02-02T02:40:25;4.50;99.90
983;DHT22;480;48.124;11.578;2023-02-02T02:42:59;4.40;99.90
983;DHT22;480;48.124;11.578;2023-02-02T02:45:31;4.50;99.90
983;DHT22;480;48.124;11.578;2023-02-02T02:48:02;4.50;99.90
983;DHT22;480;48.124;11.578;2023-02-02T02:50:29;4.50;99.90
983;DHT22;480;48.124;11.578;2023-02-02T02:53:01;4.50;99.90
983;DHT22;480;48.124;11.578;2023-02-02T02:55:38;4.50;99.90
983;DHT22;480;48.124;11.578;2023-02-02T02:58:11;4.50;99.90
983;DHT22;480;48.124;11.578;2023-02-02T03:01:02;4.50;99.90
983;DHT22;480;48.124;11.578;2023-02-02T03:06:26;4.40;99.90
983;DHT22;480;48.124;11.578;2023-02-02T03:08:57;4.40;99.90
983;DHT22;480;48.124;11.578;2023-02-02T03:11:25;4.50;99.90
983;DHT22;480;48.124;11.578;2023-02-02T03:13:52;4.50;99.90
983;DHT22;480;48.124;11.578;2023-02-02T03:16:20;4.50;99.90
983;DHT22;480;48.124;11.578;2023-02-02T03:18:49;4.50;99.90
983;DHT22;480;48.124;11.578;2023-02-02T03:21:16;4.50;99.90
983;DHT22;480;48.124;11.578;2023-02-02T03:23:43;4.50;99.90
983;DHT22;480;48.124;11.578;2023-02-02T03:26:11;4.50;99.90
983;DHT22;480;48.124;11.578;2023-02-02T03:28:38;4.50;99.90
983;DHT22;480;48.124;11.578;2023-02-02T03:31:06;4.60;99.90
983;DHT22;480;48.124;11.578;2023-02-02T03:33:34;4.60;99.90
983;DHT22;480;48.124;11.578;2023-02-02T03:36:04;4.50;99.90
983;DHT22;480;48.124;11.578;2023-02-02T03:38:33;4.50;99.90
983;DHT22;480;48.124;11.578;2023-02-02T03:41:00;4.40;99.90
983;DHT22;480;48.124;11.578;2023-02-02T03:43:27;4.30;99.90
983;DHT22;480;48.124;11.578;2023-02-02T03:45:55;4.30;99.90
983;DHT22;480;48.124;11.578;2023-02-02T03:48:22;4.20;99.90
983;DHT22;480;48.124;11.578;2023-02-02T03:50:49;4.20;99.90
983;DHT22;480;48.124;11.578;2023-02-02T03:53:18;4.10;99.90
983;DHT22;480;48.124;11.578;2023-02-02T03:55:45;4.10;99.90
983;DHT22;480;48.124;11.578;2023-02-02T03:58:12;4.10;99.90
983;DHT22;480;48.124;11.578;2023-02-02T04:00:39;4.10;99.90
983;DHT22;480;48.124;11.578;2023-02-02T04:03:06;4.10;99.90
983;DHT22;480;48.124;11.578;2023-02-02T04:05:33;4.20;99.90
983;DHT22;480;48.124;11.578;2023-02-02T04:08:00;4.20;99.90
983;DHT22;480;48.124;11.578;2023-02-02T04:10:28;4.20;99.90
983;DHT22;480;48.124;11.578;2023-02-02T04:12:56;4.30;99.90
983;DHT22;480;48.124;11.578;2023-02-02T04:15:23;4.30;99.90
983;DHT22;480;48.124;11.578;2023-02-02T04:17:50;4.30;99.90
983;DHT22;480;48.124;11.578;2023-02-02T04:20:18;4.30;99.90
983;DHT22;480;48.124;11.578;2023-02-02T04:22:45;4.30;99.90
983;DHT22;480;48.124;11.578;2023-02-02T04:25:12;4.40;99.90
983;DHT22;480;48.124;11.578;2023-02-02T04:27:40;4.40;99.90
983;DHT22;480;48.124;11.578;2023-02-02T04:30:08;4.50;99.90
983;DHT22;480;48.124;11.578;2023-02-02T04:32:36;4.50;99.90
983;DHT22;480;48.124;11.578;2023-02-02T04:35:03;4.50;99.90
983;DHT22;480;48.124;11.578;2023-02-02T04:37:30;4.50;99.90
983;DHT22;480;48.124;11.578;2023-02-02T04:39:58;4.50;99.90
983;DHT22;480;48.124;11.578;2023-02-02T04:42:24;4.50;99.90
983;DHT22;480;48.124;11.578;2023-02-02T04:44:53;4.50;99.90
983;DHT22;480;48.124;11.578;2023-02-02T04:47:20;4.40;99.90
983;DHT22;480;48.124;11.578;2023-02-02T04:49:47;4.40;99.90
983;DHT22;480;48.124;11.578;2023-02-02T04:52:14;4.30;99.90
983;DHT22;480;48.124;11.578;2023-02-02T04:54:42;4.30;99.90
983;DHT22;480;48.124;11.578;2023-02-02T04:57:09;4.30;99.90
983;DHT22;480;48.124;11.578;2023-02-02T04:59:35;4.40;99.90
983;DHT22;480;48.124;11.578;2023-02-02T05:02:04;4.40;99.90
983;DHT22;480;48.124;11.578;2023-02-02T05:04:31;4.50;99.90
983;DHT22;480;48.124;11.578;2023-02-02T05:06:58;4.50;99.90
983;DHT22;480;48.124;11.578;2023-02-02T05:09:25;4.50;99.90
983;DHT22;480;48.124;11.578;2023-02-02T05:11:52;4.60;99.90
983;DHT22;480;48.124;11.578;2023-02-02T05:14:19;4.60;99.90
983;DHT22;480;48.124;11.578;2023-02-02T05:16:46;4.60;99.90
983;DHT22;480;48.124;11.578;2023-02-02T05:19:16;4.70;99.90
983;DHT22;480;48.124;11.578;2023-02-02T05:21:43;4.70;99.90
983;DHT22;480;48.124;11.578;2023-02-02T05:24:11;4.60;99.90
983;DHT22;480;48.124;11.578;2023-02-02T05:26:38;4.60;99.90
983;DHT22;480;48.124;11.578;2023-02-02T05:29:05;4.60;99.90
983;DHT22;480;48.124;11.578;2023-02-02T05:31:34;4.60;99.90
983;DHT22;480;48.124;11.578;2023-02-02T05:34:01;4.60;99.90
983;DHT22;480;48.124;11.578;2023-02-02T05:36:29;4.60;99.90
983;DHT22;480;48.124;11.578;2023-02-02T05:38:56;4.50;99.90
983;DHT22;480;48.124;11.578;2023-02-02T05:41:24;4.50;99.90
983;DHT22;480;48.124;11.578;2023-02-02T05:43:51;4.50;99.90
983;DHT22;480;48.124;11.578;2023-02-02T05:46:18;4.50;99.90
983;DHT22;480;48.124;11.578;2023-02-02T05:48:45;4.50;99.90
983;DHT22;480;48.124;11.578;2023-02-02T05:51:15;4.50;99.90
983;DHT22;480;48.124;11.578;2023-02-02T05:53:46;4.50;99.90
983;DHT22;480;48.124;11.578;2023-02-02T05:56:14;4.40;99.90
983;DHT22;480;48.124;11.578;2023-02-02T05:58:41;4.40;99.90
983;DHT22;480;48.124;11.578;2023-02-02T06:01:09;4.40;99.90
983;DHT22;480;48.124;11.578;2023-02-02T06:03:36;4.50;99.90
983;DHT22;480;48.124;11.578;2023-02-02T06:06:03;4.50;99.90
983;DHT22;480;48.124;11.578;2023-02-02T06:08:30;4.50;99.90
983;DHT22;480;48.124;11.578;2023-02-02T06:10:59;4.50;99.90
983;DHT22;480;48.124;11.578;2023-02-02T06:13:26;4.50;99.90
983;DHT22;480;48.124;11.578;2023-02-02T06:15:53;4.50;99.90
983;DHT22;480;48.124;11.578;2023-02-02T06:18:20;4.50;99.90
983;DHT22;480;48.124;11.578;2023-02-02T06:20:47;4.60;99.90
983;DHT22;480;48.124;11.578;2023-02-02T06:23:14;4.50;99.90
983;DHT22;480;48.124;11.578;2023-02-02T06:25:41;4.50;99.90
983;DHT22;480;48.124;11.578;2023-02-02T06:28:09;4.50;99.90
983;DHT22;480;48.124;11.578;2023-02-02T06:30:36;4.50;99.90
983;DHT22;480;48.124;11.578;2023-02-02T06:33:03;4.50;99.90
983;DHT22;480;48.124;11.578;2023-02-02T06:35:32;4.40;99.90
983;DHT22;480;48.124;11.578;2023-02-02T06:37:59;4.50;99.90
983;DHT22;480;48.124;11.578;2023-02-02T06:40:29;4.50;99.90
983;DHT22;480;48.124;11.578;2023-02-02T06:42:57;4.60;99.90
983;DHT22;480;48.124;11.578;2023-02-02T06:45:27;4.60;99.90
983;DHT22;480;48.124;11.578;2023-02-02T06:47:57;4.60;99.90
983;DHT22;480;48.124;11.578;2023-02-02T06:50:26;4.60;99.90
983;DHT22;480;48.124;11.578;2023-02-02T06:52:53;4.60;99.90
983;DHT22;480;48.124;11.578;2023-02-02T06:55:20;4.60;99.90
983;DHT22;480;48.124;11.578;2023-02-02T06:57:47;4.60;99.90
983;DHT22;480;48.124;11.578;2023-02-02T07:00:15;4.60;99.90
983;DHT22;480;48.124;11.578;2023-02-02T07:02:45;4.60;99.90
983;DHT22;480;48.124;11.578;2023-02-02T07:05:12;4.60;99.90
983;DHT22;480;48.124;11.578;2023-02-02T07:07:39;4.60;99.90
983;DHT22;480;48.124;11.578;2023-02-02T07:10:07;4.70;99.90
983;DHT22;480;48.124;11.578;2023-02-02T07:12:34;4.60;99.90
983;DHT22;480;48.124;11.578;2023-02-02T07:15:07;4.60;99.90
983;DHT22;480;48.124;11.578;2023-02-02T07:17:35;4.60;99.90
983;DHT22;480;48.124;11.578;2023-02-02T07:20:05;4.60;99.90
983;DHT22;480;48.124;11.578;2023-02-02T07:22:32;4.60;99.90
983;DHT22;480;48.124;11.578;2023-02-02T07:24:59;4.70;99.90
983;DHT22;480;48.124;11.578;2023-02-02T07:27:27;4.60;99.90
983;DHT22;480;48.124;11.578;2023-02-02T07:29:54;4.80;99.90
983;DHT22;480;48.124;11.578;2023-02-02T07:32:21;4.60;99.90
983;DHT22;480;48.124;11.578;2023-02-02T07:34:48;4.70;99.90
983;DHT22;480;48.124;11.578;2023-02-02T07:37:17;4.70;99.90
983;DHT22;480;48.124;11.578;2023-02-02T07:39:44;4.80;99.90
983;DHT22;480;48.124;11.578;2023-02-02T07:42:12;4.70;99.90
983;DHT22;480;48.124;11.578;2023-02-02T07:44:40;4.70;99.90
983;DHT22;480;48.124;11.578;2023-02-02T07:47:07;4.70;99.90
983;DHT22;480;48.124;11.578;2023-02-02T07:49:34;4.80;99.90
983;DHT22;480;48.124;11.578;2023-02-02T07:52:01;4.70;99.90
983;DHT22;480;48.124;11.578;2023-02-02T07:54:30;4.70;99.90
983;DHT22;480;48.124;11.578;2023-02-02T07:56:57;4.80;99.90
983;DHT22;480;48.124;11.578;2023-02-02T07:59:25;4.70;99.90
983;DHT22;480;48.124;11.578;2023-02-02T08:01:52;4.70;99.90
983;DHT22;480;48.124;11.578;2023-02-02T08:04:19;4.70;99.90
983;DHT22;480;48.124;11.578;2023-02-02T08:06:46;4.70;99.90
983;DHT22;480;48.124;11.578;2023-02-02T08:09:14;4.80;99.90
983;DHT22;480;48.124;11.578;2023-02-02T08:11:42;4.80;99.90
983;DHT22;480;48.124;11.578;2023-02-02T08:14:11;4.70;99.90
983;DHT22;480;48.124;11.578;2023-02-02T08:16:39;4.80;99.90
983;DHT22;480;48.124;11.578;2023-02-02T08:19:06;4.80;99.90
983;DHT22;480;48.124;11.578;2023-02-02T08:21:33;4.70;99.90
983;DHT22;480;48.124;11.578;2023-02-02T08:24:00;4.70;99.90
983;DHT22;480;48.124;11.578;2023-02-02T08:26:30;4.70;99.90
983;DHT22;480;48.124;11.578;2023-02-02T08:29:00;4.60;99.90
983;DHT22;480;48.124;11.578;2023-02-02T08:31:30;4.70;99.90
983;DHT22;480;48.124;11.578;2023-02-02T08:33:57;4.70;99.90
983;DHT22;480;48.124;11.578;2023-02-02T08:36:26;4.80;99.90
983;DHT22;480;48.124;11.578;2023-02-02T08:38:53;4.70;99.90
983;DHT22;480;48.124;11.578;2023-02-02T08:41:22;4.70;99.90
983;DHT22;480;48.124;11.578;2023-02-02T08:43:50;4.70;99.90
983;DHT22;480;48.124;11.578;2023-02-02T08:46:19;4.70;99.90
983;DHT22;480;48.124;11.578;2023-02-02T08:48:47;4.70;99.90
983;DHT22;480;48.124;11.578;2023-02-02T08:51:16;4.70;99.90
983;DHT22;480;48.124;11.578;2023-02-02T08:53:44;4.70;99.90
983;DHT22;480;48.124;11.578;2023-02-02T08:56:14;4.60;99.90
983;DHT22;480;48.124;11.578;2023-02-02T08:58:44;4.70;99.90
983;DHT22;480;48.124;11.578;2023-02-02T09:01:13;4.60;99.90
983;DHT22;480;48.124;11.578;2023-02-02T09:03:42;4.60;99.90
983;DHT22;480;48.124;11.578;2023-02-02T09:06:11;4.60;99.90
983;DHT22;480;48.124;11.578;2023-02-02T09:08:38;4.60;99.90
983;DHT22;480;48.124;11.578;2023-02-02T09:11:07;4.60;99.90
983;DHT22;480;48.124;11.578;2023-02-02T09:13:37;4.50;99.90
983;DHT22;480;48.124;11.578;2023-02-02T09:16:07;4.50;99.90
983;DHT22;480;48.124;11.578;2023-02-02T09:18:35;4.60;99.90
983;DHT22;480;48.124;11.578;2023-02-02T09:21:05;4.60;99.90
983;DHT22;480;48.124;11.578;2023-02-02T09:23:34;4.60;99.90
983;DHT22;480;48.124;11.578;2023-02-02T09:26:08;4.60;99.90
983;DHT22;480;48.124;11.578;2023-02-02T09:28:36;4.60;99.90
983;DHT22;480;48.124;11.578;2023-02-02T09:31:03;4.60;99.90
983;DHT22;480;48.124;11.578;2023-02-02T09:33:30;4.70;99.90
983;DHT22;480;48.124;11.578;2023-02-02T09:36:05;4.70;99.90
983;DHT22;480;48.124;11.578;2023-02-02T09:38:32;4.70;99.90
983;DHT22;480;48.124;11.578;2023-02-02T09:41:00;4.80;99.90
983;DHT22;480;48.124;11.578;2023-02-02T09:43:43;4.70;99.90
983;DHT22;480;48.124;11.578;2023-02-02T09:46:21;4.80;99.90
983;DHT22;480;48.124;11.578;2023-02-02T09:48:59;4.80;99.90
983;DHT22;480;48.124;11.578;2023-02-02T09:51:32;4.80;99.90
983;DHT22;480;48.124;11.578;2023-02-02T09:54:09;4.80;99.90
983;DHT22;480;48.124;11.578;2023-02-02T09:56:39;4.90;99.90
983;DHT22;480;48.124;11.578;2023-02-02T09:59:13;5.00;99.90
983;DHT22;480;48.124;11.578;2023-02-02T10:01:42;4.90;99.90
983;DHT22;480;48.124;11.578;2023-02-02T10:04:13;4.80;99.90
983;DHT22;480;48.124;11.578;2023-02-02T10:06:46;4.80;99.90
983;DHT22;480;48.124;11.578;2023-02-02T10:09:29;4.80;99.90
983;DHT22;480;48.124;11.578;2023-02-02T10:12:04;4.80;99.90
983;DHT22;480;48.124;11.578;2023-02-02T10:14:35;4.80;99.90
983;DHT22;480;48.124;11.578;2023-02-02T10:17:16;4.80;99.90
983;DHT22;480;48.124;11.578;2023-02-02T10:19:53;4.80;99.90
983;DHT22;480;48.124;11.578;2023-02-02T10:22:26;4.80;99.90
983;DHT22;480;48.124;11.578;2023-02-02T10:24:58;4.90;99.90
983;DHT22;480;48.124;11.578;2023-02-02T10:27:37;4.90;99.90
983;DHT22;480;48.124;11.578;2023-02-02T10:30:10;4.90;99.90
983;DHT22;480;48.124;11.578;2023-02-02T10:32:46;4.90;99.90
983;DHT22;480;48.124;11.578;2023-02-02T10:35:37;4.90;99.90
983;DHT22;480;48.124;11.578;2023-02-02T10:38:22;5.00;99.90
983;DHT22;480;48.124;11.578;2023-02-02T10:41:11;5.00;99.90
983;DHT22;480;48.124;11.578;2023-02-02T10:44:00;5.00;99.90
983;DHT22;480;48.124;11.578;2023-02-02T10:46:32;5.00;99.90
983;DHT22;480;48.124;11.578;2023-02-02T10:49:23;5.00;99.90
983;DHT22;480;48.124;11.578;2023-02-02T10:51:56;5.00;99.90
983;DHT22;480;48.124;11.578;2023-02-02T10:54:38;5.00;99.90
983;DHT22;480;48.124;11.578;2023-02-02T10:57:08;5.00;99.90
983;DHT22;480;48.124;11.578;2023-02-02T10:59:42;5.00;99.90
983;DHT22;480;48.124;11.578;2023-02-02T11:02:12;5.10;99.90
983;DHT22;480;48.124;11.578;2023-02-02T11:04:39;5.10;99.90
983;DHT22;480;48.124;11.578;2023-02-02T11:07:24;5.10;99.90
983;DHT22;480;48.124;11.578;2023-02-02T11:09:52;5.20;99.90
983;DHT22;480;48.124;11.578;2023-02-02T11:12:24;5.20;99.90
983;DHT22;480;48.124;11.578;2023-02-02T11:14:58;5.30;99.90
983;DHT22;480;48.124;11.578;2023-02-02T11:17:27;5.20;99.90
983;DHT22;480;48.124;11.578;2023-02-02T11:19:55;5.20;99.90
983;DHT22;480;48.124;11.578;2023-02-02T11:22:29;5.20;99.90
983;DHT22;480;48.124;11.578;2023-02-02T11:25:01;5.30;99.90
983;DHT22;480;48.124;11.578;2023-02-02T11:27:31;5.30;99.90
983;DHT22;480;48.124;11.578;2023-02-02T11:30:11;5.30;99.90
983;DHT22;480;48.124;11.578;2023-02-02T11:32:45;5.30;99.90
983;DHT22;480;48.124;11.578;2023-02-02T11:35:20;5.30;99.90
983;DHT22;480;48.124;11.578;2023-02-02T11:37:59;5.40;99.90
983;DHT22;480;48.124;11.578;2023-02-02T11:40:36;5.30;99.90
983;DHT22;480;48.124;11.578;2023-02-02T11:43:06;5.20;99.90
983;DHT22;480;48.124;11.578;2023-02-02T11:45:42;5.20;99.90
983;DHT22;480;48.124;11.578;2023-02-02T11:48:15;5.20;99.90
983;DHT22;480;48.124;11.578;2023-02-02T11:50:48;5.10;99.90
983;DHT22;480;48.124;11.578;2023-02-02T11:53:23;5.30;99.90
983;DHT22;480;48.124;11.578;2023-02-02T11:55:54;5.40;99.90
983;DHT22;480;48.124;11.578;2023-02-02T11:58:24;5.40;99.90
983;DHT22;480;48.124;11.578;2023-02-02T12:00:59;5.50;99.90
983;DHT22;480;48.124;11.578;2023-02-02T12:03:31;5.40;99.90
983;DHT22;480;48.124;11.578;2023-02-02T12:05:58;5.50;99.90
983;DHT22;480;48.124;11.578;2023-02-02T12:08:28;5.50;99.90
983;DHT22;480;48.124;11.578;2023-02-02T12:11:04;5.50;99.90
983;DHT22;480;48.124;11.578;2023-02-02T12:13:45;5.50;99.90
983;DHT22;480;48.124;11.578;2023-02-02T12:16:32;5.50;99.90
983;DHT22;480;48.124;11.578;2023-02-02T12:19:14;5.50;99.90
983;DHT22;480;48.124;11.578;2023-02-02T12:21:52;5.50;99.90
983;DHT22;480;48.124;11.578;2023-02-02T12:24:28;5.40;99.90
983;DHT22;480;48.124;11.578;2023-02-02T12:27:20;5.40;99.90
983;DHT22;480;48.124;11.578;2023-02-02T12:30:06;5.30;99.90
983;DHT22;480;48.124;11.578;2023-02-02T12:32:58;5.40;99.90
983;DHT22;480;48.124;11.578;2023-02-02T12:35:47;5.30;99.90
983;DHT22;480;48.124;11.578;2023-02-02T12:38:23;5.20;99.90
983;DHT22;480;48.124;11.578;2023-02-02T12:43:50;5.20;99.90
983;DHT22;480;48.124;11.578;2023-02-02T12:49:38;5.10;99.90
983;DHT22;480;48.124;11.578;2023-02-02T12:52:17;5.10;99.90
983;DHT22;480;48.124;11.578;2023-02-02T12:55:03;5.10;99.90
983;DHT22;480;48.124;11.578;2023-02-02T12:57:49;5.10;99.90
983;DHT22;480;48.124;11.578;2023-02-02T13:00:40;5.00;99.90
983;DHT22;480;48.124;11.578;2023-02-02T13:03:29;5.00;99.90
983;DHT22;480;48.124;11.578;2023-02-02T13:06:07;5.00;99.90
983;DHT22;480;48.124;11.578;2023-02-02T13:08:42;5.10;99.90
983;DHT22;480;48.124;11.578;2023-02-02T13:11:16;5.10;99.90
983;DHT22;480;48.124;11.578;2023-02-02T13:13:58;5.00;99.90
983;DHT22;480;48.124;11.578;2023-02-02T13:16:30;4.90;99.90
983;DHT22;480;48.124;11.578;2023-02-02T13:19:01;4.90;99.90
983;DHT22;480;48.124;11.578;2023-02-02T13:21:30;4.80;99.90
983;DHT22;480;48.124;11.578;2023-02-02T13:24:00;4.80;99.90
983;DHT22;480;48.124;11.578;2023-02-02T13:26:33;4.70;99.90
983;DHT22;480;48.124;11.578;2023-02-02T13:29:06;4.70;99.90
983;DHT22;480;48.124;11.578;2023-02-02T13:31:44;4.70;99.90
983;DHT22;480;48.124;11.578;2023-02-02T13:34:16;4.70;99.90
983;DHT22;480;48.124;11.578;2023-02-02T13:36:49;4.70;99.90
983;DHT22;480;48.124;11.578;2023-02-02T13:39:19;4.60;99.90
983;DHT22;480;48.124;11.578;2023-02-02T13:41:49;4.70;99.90
983;DHT22;480;48.124;11.578;2023-02-02T13:44:22;4.60;99.90
983;DHT22;480;48.124;11.578;2023-02-02T13:46:58;4.70;99.90
983;DHT22;480;48.124;11.578;2023-02-02T13:49:29;4.70;99.90
983;DHT22;480;48.124;11.578;2023-02-02T13:52:08;4.60;99.90
983;DHT22;480;48.124;11.578;2023-02-02T13:55:24;4.70;99.90
983;DHT22;480;48.124;11.578;2023-02-02T14:01:00;4.60;99.90
983;DHT22;480;48.124;11.578;2023-02-02T14:03:34;4.60;99.90
983;DHT22;480;48.124;11.578;2023-02-02T14:06:11;4.50;99.90
983;DHT22;480;48.124;11.578;2023-02-02T14:08:58;4.50;99.90
983;DHT22;480;48.124;11.578;2023-02-02T14:11:31;4.50;99.90
983;DHT22;480;48.124;11.578;2023-02-02T14:14:06;4.50;99.90
983;DHT22;480;48.124;11.578;2023-02-02T14:16:51;4.50;99.90
983;DHT22;480;48.124;11.578;2023-02-02T14:19:48;4.50;99.90
983;DHT22;480;48.124;11.578;2023-02-02T14:28:09;4.50;99.90
983;DHT22;480;48.124;11.578;2023-02-02T14:30:37;4.50;99.90
983;DHT22;480;48.124;11.578;2023-02-02T14:33:23;4.50;99.90
983;DHT22;480;48.124;11.578;2023-02-02T14:35:59;4.40;99.90
983;DHT22;480;48.124;11.578;2023-02-02T14:41:29;4.50;99.90
983;DHT22;480;48.124;11.578;2023-02-02T14:44:11;4.40;99.90
983;DHT22;480;48.124;11.578;2023-02-02T14:46:38;4.50;99.90
983;DHT22;480;48.124;11.578;2023-02-02T14:49:21;4.50;99.90
983;DHT22;480;48.124;11.578;2023-02-02T14:51:54;4.40;99.90
983;DHT22;480;48.124;11.578;2023-02-02T14:54:26;4.40;99.90
983;DHT22;480;48.124;11.578;2023-02-02T14:56:59;4.50;99.90
983;DHT22;480;48.124;11.578;2023-02-02T14:59:31;4.50;99.90
983;DHT22;480;48.124;11.578;2023-02-02T15:02:05;4.50;99.90
983;DHT22;480;48.124;11.578;2023-02-02T15:04:34;4.50;99.90
983;DHT22;480;48.124;11.578;2023-02-02T15:10:08;4.40;99.90
983;DHT22;480;48.124;11.578;2023-02-02T15:12:38;4.40;99.90
983;DHT22;480;48.124;11.578;2023-02-02T15:15:14;4.40;99.90
983;DHT22;480;48.124;11.578;2023-02-02T15:17:53;4.30;99.90
983;DHT22;480;48.124;11.578;2023-02-02T15:20:27;4.40;99.90
983;DHT22;480;48.124;11.578;2023-02-02T15:22:58;4.30;99.90
983;DHT22;480;48.124;11.578;2023-02-02T15:25:31;4.40;99.90
983;DHT22;480;48.124;11.578;2023-02-02T15:28:23;4.40;99.90
983;DHT22;480;48.124;11.578;2023-02-02T15:30:54;4.40;99.90
983;DHT22;480;48.124;11.578;2023-02-02T15:33:27;4.40;99.90
983;DHT22;480;48.124;11.578;2023-02-02T15:35:56;4.40;99.90
983;DHT22;480;48.124;11.578;2023-02-02T15:38:32;4.40;99.90
983;DHT22;480;48.124;11.578;2023-02-02T15:41:05;4.40;99.90
983;DHT22;480;48.124;11.578;2023-02-02T15:43:33;4.40;99.90
983;DHT22;480;48.124;11.578;2023-02-02T15:46:02;4.50;99.90
983;DHT22;480;48.124;11.578;2023-02-02T15:48:32;4.50;99.90
983;DHT22;480;48.124;11.578;2023-02-02T15:51:03;4.50;99.90
983;DHT22;480;48.124;11.578;2023-02-02T15:53:33;4.40;99.90
983;DHT22;480;48.124;11.578;2023-02-02T15:56:28;4.40;99.90
983;DHT22;480;48.124;11.578;2023-02-02T15:58:57;4.50;99.90
983;DHT22;480;48.124;11.578;2023-02-02T16:01:26;4.50;99.90
983;DHT22;480;48.124;11.578;2023-02-02T16:03:58;4.40;99.90
983;DHT22;480;48.124;11.578;2023-02-02T16:06:29;4.40;99.90
983;DHT22;480;48.124;11.578;2023-02-02T16:09:01;4.40;99.90
983;DHT22;480;48.124;11.578;2023-02-02T16:11:29;4.40;99.90
983;DHT22;480;48.124;11.578;2023-02-02T16:13:59;4.40;99.90
983;DHT22;480;48.124;11.578;2023-02-02T16:16:28;4.40;99.90
983;DHT22;480;48.124;11.578;2023-02-02T16:19:12;4.50;99.90
983;DHT22;480;48.124;11.578;2023-02-02T16:21:44;4.50;99.90
983;DHT22;480;48.124;11.578;2023-02-02T16:24:16;4.50;99.90
983;DHT22;480;48.124;11.578;2023-02-02T16:26:46;4.50;99.90
983;DHT22;480;48.124;11.578;2023-02-02T16:29:13;4.50;99.90
983;DHT22;480;48.124;11.578;2023-02-02T16:31:43;4.50;99.90
983;DHT22;480;48.124;11.578;2023-02-02T16:34:14;4.50;99.90
983;DHT22;480;48.124;11.578;2023-02-02T16:37:03;4.50;99.90
983;DHT22;480;48.124;11.578;2023-02-02T16:39:30;4.50;99.90
983;DHT22;480;48.124;11.578;2023-02-02T16:42:08;4.60;99.90
983;DHT22;480;48.124;11.578;2023-02-02T16:44:40;4.60;99.90
983;DHT22;480;48.124;11.578;2023-02-02T16:47:35;4.50;99.90
983;DHT22;480;48.124;11.578;2023-02-02T16:50:27;4.60;99.90
983;DHT22;480;48.124;11.578;2023-02-02T16:52:58;4.60;99.90
983;DHT22;480;48.124;11.578;2023-02-02T16:55:28;4.60;99.90
983;DHT22;480;48.124;11.578;2023-02-02T16:57:58;4.60;99.90
983;DHT22;480;48.124;11.578;2023-02-02T17:00:28;4.60;99.90
983;DHT22;480;48.124;11.578;2023-02-02T17:02:59;4.60;99.90
983;DHT22;480;48.124;11.578;2023-02-02T17:05:29;4.60;99.90
983;DHT22;480;48.124;11.578;2023-02-02T17:07:59;4.60;99.90
983;DHT22;480;48.124;11.578;2023-02-02T17:10:30;4.70;99.90
983;DHT22;480;48.124;11.578;2023-02-02T17:13:02;4.70;99.90
983;DHT22;480;48.124;11.578;2023-02-02T17:15:51;4.70;99.90
983;DHT22;480;48.124;11.578;2023-02-02T17:18:19;4.60;99.90
983;DHT22;480;48.124;11.578;2023-02-02T17:20:46;4.60;99.90
983;DHT22;480;48.124;11.578;2023-02-02T17:23:22;4.70;99.90
983;DHT22;480;48.124;11.578;2023-02-02T17:25:50;4.70;99.90
983;DHT22;480;48.124;11.578;2023-02-02T17:28:20;4.70;99.90
983;DHT22;480;48.124;11.578;2023-02-02T17:30:51;4.70;99.90
983;DHT22;480;48.124;11.578;2023-02-02T17:33:23;4.70;99.90
983;DHT22;480;48.124;11.578;2023-02-02T17:35:50;4.80;99.90